sensor_id;sensor_type;location;lat;lon;timestamp;P1;durP1;ratioP1;P2;durP2;ratioP2
66421;SDS011;53228;51.380;0.098;2023-11-22T00:00:08;10.52;;;6.28;;
66421;SDS011;53228;51.380;0.098;2023-11-22T00:02:36;10.63;;;5.57;;
66421;SDS011;53228;51.380;0.098;2023-11-22T00:05:05;9.20;;;5.68;;
66421;SDS011;53228;51.380;0.098;2023-11-22T00:07:33;12.20;;;5.53;;
66421;SDS011;53228;51.380;0.098;2023-11-22T00:10:01;10.15;;;5.05;;
66421;SDS011;53228;51.380;0.098;2023-11-22T00:12:31;9.00;;;4.90;;
66421;SDS011;53228;51.380;0.098;2023-11-22T00:15:04;12.25;;;5.63;;
66421;SDS011;53228;51.380;0.098;2023-11-22T00:17:33;9.40;;;5.03;;
66421;SDS011;53228;51.380;0.098;2023-11-22T00:20:02;7.35;;;4.38;;
66421;SDS011;53228;51.380;0.098;2023-11-22T00:22:33;9.50;;;4.68;;
66421;SDS011;53228;51.380;0.098;2023-11-22T00:25:01;9.90;;;4.53;;
66421;SDS011;53228;51.380;0.098;2023-11-22T00:27:30;8.35;;;4.15;;
66421;SDS011;53228;51.380;0.098;2023-11-22T00:30:01;10.70;;;4.43;;
66421;SDS011;53228;51.380;0.098;2023-11-22T00:32:29;6.22;;;3.75;;
66421;SDS011;53228;51.380;0.098;2023-11-22T00:34:57;10.82;;;3.90;;
66421;SDS011;53228;51.380;0.098;2023-11-22T00:37:24;8.70;;;3.75;;
66421;SDS011;53228;51.380;0.098;2023-11-22T00:39:52;8.88;;;4.10;;
66421;SDS011;53228;51.380;0.098;2023-11-22T00:42:20;7.38;;;3.88;;
66421;SDS011;53228;51.380;0.098;2023-11-22T00:44:48;7.85;;;3.75;;
66421;SDS011;53228;51.380;0.098;2023-11-22T00:47:15;4.47;;;3.33;;
66421;SDS011;53228;51.380;0.098;2023-11-22T00:49:44;8.65;;;3.92;;
66421;SDS011;53228;51.380;0.098;2023-11-22T00:52:11;6.05;;;3.70;;
66421;SDS011;53228;51.380;0.098;2023-11-22T00:54:40;8.07;;;3.30;;
66421;SDS011;53228;51.380;0.098;2023-11-22T00:57:07;11.38;;;4.15;;
66421;SDS011;53228;51.380;0.098;2023-11-22T00:59:35;5.40;;;3.65;;
66421;SDS011;53228;51.380;0.098;2023-11-22T01:02:03;8.57;;;3.30;;
66421;SDS011;53228;51.380;0.098;2023-11-22T01:04:32;6.00;;;3.10;;
66421;SDS011;53228;51.380;0.098;2023-11-22T01:07:03;5.47;;;3.40;;
66421;SDS011;53228;51.380;0.098;2023-11-22T01:09:34;6.28;;;3.50;;
66421;SDS011;53228;51.380;0.098;2023-11-22T01:12:02;7.65;;;3.78;;
66421;SDS011;53228;51.380;0.098;2023-11-22T01:14:30;7.18;;;3.30;;
66421;SDS011;53228;51.380;0.098;2023-11-22T01:16:58;7.68;;;3.45;;
66421;SDS011;53228;51.380;0.098;2023-11-22T01:19:25;3.83;;;2.75;;
66421;SDS011;53228;51.380;0.098;2023-11-22T01:21:54;3.42;;;2.70;;
66421;SDS011;53228;51.380;0.098;2023-11-22T01:24:22;5.22;;;2.53;;
66421;SDS011;53228;51.380;0.098;2023-11-22T01:26:50;6.13;;;2.83;;
66421;SDS011;53228;51.380;0.098;2023-11-22T01:29:17;3.28;;;2.65;;
66421;SDS011;53228;51.380;0.098;2023-11-22T01:31:45;8.45;;;3.25;;
66421;SDS011;53228;51.380;0.098;2023-11-22T01:34:12;5.57;;;3.03;;
66421;SDS011;53228;51.380;0.098;2023-11-22T01:36:44;7.18;;;2.63;;
66421;SDS011;53228;51.380;0.098;2023-11-22T01:44:12;3.85;;;2.67;;
66421;SDS011;53228;51.380;0.098;2023-11-22T01:46:40;5.50;;;2.92;;
66421;SDS011;53228;51.380;0.098;2023-11-22T01:49:10;4.00;;;2.70;;
66421;SDS011;53228;51.380;0.098;2023-11-22T01:51:37;7.50;;;3.05;;
66421;SDS011;53228;51.380;0.098;2023-11-22T01:54:07;5.38;;;2.97;;
66421;SDS011;53228;51.380;0.098;2023-11-22T01:56:36;4.20;;;2.25;;
66421;SDS011;53228;51.380;0.098;2023-11-22T01:59:06;10.77;;;3.42;;
66421;SDS011;53228;51.380;0.098;2023-11-22T02:01:34;4.45;;;2.60;;
66421;SDS011;53228;51.380;0.098;2023-11-22T02:04:02;4.95;;;2.75;;
66421;SDS011;53228;51.380;0.098;2023-11-22T02:06:30;4.68;;;2.47;;
66421;SDS011;53228;51.380;0.098;2023-11-22T02:08:59;4.75;;;2.63;;
66421;SDS011;53228;51.380;0.098;2023-11-22T02:11:27;3.80;;;2.28;;
66421;SDS011;53228;51.380;0.098;2023-11-22T02:13:55;6.20;;;2.20;;
66421;SDS011;53228;51.380;0.098;2023-11-22T02:16:23;5.22;;;2.15;;
66421;SDS011;53228;51.380;0.098;2023-11-22T02:18:51;4.88;;;2.28;;
66421;SDS011;53228;51.380;0.098;2023-11-22T02:21:18;3.70;;;2.15;;
66421;SDS011;53228;51.380;0.098;2023-11-22T02:23:48;2.90;;;2.10;;
66421;SDS011;53228;51.380;0.098;2023-11-22T02:26:16;3.08;;;2.05;;
66421;SDS011;53228;51.380;0.098;2023-11-22T02:28:47;3.17;;;1.88;;
66421;SDS011;53228;51.380;0.098;2023-11-22T02:31:16;5.40;;;2.10;;
66421;SDS011;53228;51.380;0.098;2023-11-22T02:33:45;2.50;;;1.95;;
66421;SDS011;53228;51.380;0.098;2023-11-22T02:36:12;4.93;;;2.00;;
66421;SDS011;53228;51.380;0.098;2023-11-22T02:38:40;3.95;;;1.65;;
66421;SDS011;53228;51.380;0.098;2023-11-22T02:41:08;2.85;;;1.80;;
66421;SDS011;53228;51.380;0.098;2023-11-22T02:43:36;4.53;;;1.77;;
66421;SDS011;53228;51.380;0.098;2023-11-22T02:46:04;12.82;;;2.55;;
66421;SDS011;53228;51.380;0.098;2023-11-22T02:48:31;3.80;;;1.70;;
66421;SDS011;53228;51.380;0.098;2023-11-22T02:51:00;2.45;;;1.70;;
66421;SDS011;53228;51.380;0.098;2023-11-22T02:53:28;4.97;;;1.90;;
66421;SDS011;53228;51.380;0.098;2023-11-22T02:56:00;2.17;;;1.52;;
66421;SDS011;53228;51.380;0.098;2023-11-22T02:58:29;2.35;;;1.40;;
66421;SDS011;53228;51.380;0.098;2023-11-22T03:00:58;1.60;;;1.50;;
66421;SDS011;53228;51.380;0.098;2023-11-22T03:03:25;2.60;;;1.55;;
66421;SDS011;53228;51.380;0.098;2023-11-22T03:05:54;1.33;;;1.05;;
66421;SDS011;53228;51.380;0.098;2023-11-22T03:08:21;1.63;;;1.20;;
66421;SDS011;53228;51.380;0.098;2023-11-22T03:10:49;2.15;;;1.23;;
66421;SDS011;53228;51.380;0.098;2023-11-22T03:13:20;2.53;;;1.05;;
66421;SDS011;53228;51.380;0.098;2023-11-22T03:15:48;3.58;;;1.25;;
66421;SDS011;53228;51.380;0.098;2023-11-22T03:18:16;1.83;;;1.00;;
66421;SDS011;53228;51.380;0.098;2023-11-22T03:20:44;3.35;;;1.10;;
66421;SDS011;53228;51.380;0.098;2023-11-22T03:23:11;3.55;;;1.00;;
66421;SDS011;53228;51.380;0.098;2023-11-22T03:25:39;2.15;;;0.93;;
66421;SDS011;53228;51.380;0.098;2023-11-22T03:28:07;4.20;;;1.00;;
66421;SDS011;53228;51.380;0.098;2023-11-22T03:30:35;1.58;;;0.80;;
66421;SDS011;53228;51.380;0.098;2023-11-22T03:33:02;1.35;;;1.10;;
66421;SDS011;53228;51.380;0.098;2023-11-22T03:35:31;1.08;;;0.80;;
66421;SDS011;53228;51.380;0.098;2023-11-22T03:37:59;1.48;;;1.20;;
66421;SDS011;53228;51.380;0.098;2023-11-22T03:40:26;2.33;;;0.95;;
66421;SDS011;53228;51.380;0.098;2023-11-22T03:42:54;1.67;;;1.00;;
66421;SDS011;53228;51.380;0.098;2023-11-22T03:45:22;2.70;;;1.15;;
66421;SDS011;53228;51.380;0.098;2023-11-22T03:47:49;1.40;;;0.95;;
66421;SDS011;53228;51.380;0.098;2023-11-22T03:50:17;4.50;;;1.20;;
66421;SDS011;53228;51.380;0.098;2023-11-22T03:52:45;2.55;;;0.98;;
66421;SDS011;53228;51.380;0.098;2023-11-22T03:55:14;1.20;;;1.05;;
66421;SDS011;53228;51.380;0.098;2023-11-22T03:57:41;2.53;;;1.13;;
66421;SDS011;53228;51.380;0.098;2023-11-22T04:00:09;3.38;;;1.20;;
66421;SDS011;53228;51.380;0.098;2023-11-22T04:02:39;2.67;;;1.52;;
66421;SDS011;53228;51.380;0.098;2023-11-22T04:05:07;1.08;;;0.98;;
66421;SDS011;53228;51.380;0.098;2023-11-22T04:07:35;3.60;;;1.42;;
66421;SDS011;53228;51.380;0.098;2023-11-22T04:10:05;2.17;;;1.05;;
66421;SDS011;53228;51.380;0.098;2023-11-22T04:12:33;1.63;;;1.17;;
66421;SDS011;53228;51.380;0.098;2023-11-22T04:15:03;2.22;;;1.38;;
66421;SDS011;53228;51.380;0.098;2023-11-22T04:17:36;1.95;;;1.30;;
66421;SDS011;53228;51.380;0.098;2023-11-22T04:20:08;2.58;;;1.48;;
66421;SDS011;53228;51.380;0.098;2023-11-22T04:22:37;3.55;;;1.25;;
66421;SDS011;53228;51.380;0.098;2023-11-22T04:25:05;4.10;;;1.25;;
66421;SDS011;53228;51.380;0.098;2023-11-22T04:27:33;2.80;;;1.20;;
66421;SDS011;53228;51.380;0.098;2023-11-22T04:30:01;1.70;;;1.05;;
66421;SDS011;53228;51.380;0.098;2023-11-22T04:32:29;2.40;;;1.25;;
66421;SDS011;53228;51.380;0.098;2023-11-22T04:34:57;3.13;;;1.30;;
66421;SDS011;53228;51.380;0.098;2023-11-22T04:37:25;2.83;;;1.20;;
66421;SDS011;53228;51.380;0.098;2023-11-22T04:39:54;6.00;;;1.00;;
66421;SDS011;53228;51.380;0.098;2023-11-22T04:42:22;2.38;;;1.27;;
66421;SDS011;53228;51.380;0.098;2023-11-22T04:44:50;5.72;;;1.42;;
66421;SDS011;53228;51.380;0.098;2023-11-22T04:47:24;2.45;;;1.17;;
66421;SDS011;53228;51.380;0.098;2023-11-22T04:49:52;2.55;;;1.27;;
66421;SDS011;53228;51.380;0.098;2023-11-22T04:52:20;3.40;;;1.30;;
66421;SDS011;53228;51.380;0.098;2023-11-22T04:54:47;1.42;;;1.10;;
66421;SDS011;53228;51.380;0.098;2023-11-22T04:57:15;5.13;;;1.23;;
66421;SDS011;53228;51.380;0.098;2023-11-22T04:59:43;2.83;;;1.05;;
66421;SDS011;53228;51.380;0.098;2023-11-22T05:02:12;2.75;;;1.25;;
66421;SDS011;53228;51.380;0.098;2023-11-22T05:04:40;4.15;;;1.25;;
66421;SDS011;53228;51.380;0.098;2023-11-22T05:07:09;5.75;;;1.30;;
66421;SDS011;53228;51.380;0.098;2023-11-22T05:09:36;4.70;;;1.48;;
66421;SDS011;53228;51.380;0.098;2023-11-22T05:12:04;1.80;;;0.77;;
66421;SDS011;53228;51.380;0.098;2023-11-22T05:14:32;4.18;;;1.60;;
66421;SDS011;53228;51.380;0.098;2023-11-22T05:17:00;5.93;;;1.30;;
66421;SDS011;53228;51.380;0.098;2023-11-22T05:19:28;2.25;;;0.95;;
66421;SDS011;53228;51.380;0.098;2023-11-22T05:21:55;5.07;;;1.30;;
66421;SDS011;53228;51.380;0.098;2023-11-22T05:24:23;3.97;;;1.20;;
66421;SDS011;53228;51.380;0.098;2023-11-22T05:26:50;2.78;;;1.00;;
66421;SDS011;53228;51.380;0.098;2023-11-22T05:29:18;4.90;;;1.45;;
66421;SDS011;53228;51.380;0.098;2023-11-22T05:31:46;2.17;;;1.20;;
66421;SDS011;53228;51.380;0.098;2023-11-22T05:34:14;6.13;;;1.40;;
66421;SDS011;53228;51.380;0.098;2023-11-22T05:36:41;1.77;;;1.25;;
66421;SDS011;53228;51.380;0.098;2023-11-22T05:39:09;5.47;;;1.25;;
66421;SDS011;53228;51.380;0.098;2023-11-22T05:41:38;3.20;;;1.13;;
66421;SDS011;53228;51.380;0.098;2023-11-22T05:44:06;1.92;;;1.38;;
66421;SDS011;53228;51.380;0.098;2023-11-22T05:46:35;3.70;;;1.45;;
66421;SDS011;53228;51.380;0.098;2023-11-22T05:49:03;3.97;;;1.33;;
66421;SDS011;53228;51.380;0.098;2023-11-22T05:51:31;2.10;;;1.15;;
66421;SDS011;53228;51.380;0.098;2023-11-22T05:54:00;4.20;;;1.50;;
66421;SDS011;53228;51.380;0.098;2023-11-22T05:56:28;2.13;;;1.50;;
66421;SDS011;53228;51.380;0.098;2023-11-22T05:58:56;2.90;;;1.20;;
66421;SDS011;53228;51.380;0.098;2023-11-22T06:01:24;3.65;;;1.55;;
66421;SDS011;53228;51.380;0.098;2023-11-22T06:03:53;3.85;;;1.27;;
66421;SDS011;53228;51.380;0.098;2023-11-22T06:06:21;6.78;;;1.48;;
66421;SDS011;53228;51.380;0.098;2023-11-22T06:08:49;1.30;;;1.20;;
66421;SDS011;53228;51.380;0.098;2023-11-22T06:11:18;5.35;;;1.60;;
66421;SDS011;53228;51.380;0.098;2023-11-22T06:13:46;3.15;;;1.20;;
66421;SDS011;53228;51.380;0.098;2023-11-22T06:16:14;6.65;;;1.27;;
66421;SDS011;53228;51.380;0.098;2023-11-22T06:18:41;2.13;;;1.20;;
66421;SDS011;53228;51.380;0.098;2023-11-22T06:21:11;4.65;;;1.08;;
66421;SDS011;53228;51.380;0.098;2023-11-22T06:23:39;2.72;;;1.10;;
66421;SDS011;53228;51.380;0.098;2023-11-22T06:26:06;2.22;;;1.73;;
66421;SDS011;53228;51.380;0.098;2023-11-22T06:28:34;3.60;;;1.20;;
66421;SDS011;53228;51.380;0.098;2023-11-22T06:31:02;5.60;;;1.58;;
66421;SDS011;53228;51.380;0.098;2023-11-22T06:33:33;5.40;;;1.25;;
66421;SDS011;53228;51.380;0.098;2023-11-22T06:36:00;3.80;;;1.15;;
66421;SDS011;53228;51.380;0.098;2023-11-22T06:38:31;2.25;;;1.02;;
66421;SDS011;53228;51.380;0.098;2023-11-22T06:40:59;2.88;;;1.20;;
66421;SDS011;53228;51.380;0.098;2023-11-22T06:43:26;2.55;;;1.38;;
66421;SDS011;53228;51.380;0.098;2023-11-22T06:45:54;2.88;;;1.38;;
66421;SDS011;53228;51.380;0.098;2023-11-22T06:48:22;2.83;;;1.15;;
66421;SDS011;53228;51.380;0.098;2023-11-22T06:50:53;3.70;;;1.05;;
66421;SDS011;53228;51.380;0.098;2023-11-22T06:53:20;5.72;;;1.45;;
66421;SDS011;53228;51.380;0.098;2023-11-22T06:55:48;1.90;;;1.10;;
66421;SDS011;53228;51.380;0.098;2023-11-22T06:58:15;7.45;;;1.65;;
66421;SDS011;53228;51.380;0.098;2023-11-22T07:00:45;8.02;;;1.30;;
66421;SDS011;53228;51.380;0.098;2023-11-22T07:03:12;3.85;;;1.40;;
66421;SDS011;53228;51.380;0.098;2023-11-22T07:05:43;4.90;;;1.65;;
66421;SDS011;53228;51.380;0.098;2023-11-22T07:08:11;2.65;;;1.50;;
66421;SDS011;53228;51.380;0.098;2023-11-22T07:10:39;6.63;;;1.55;;
66421;SDS011;53228;51.380;0.098;2023-11-22T07:13:07;2.25;;;1.42;;
66421;SDS011;53228;51.380;0.098;2023-11-22T07:15:36;5.95;;;1.33;;
66421;SDS011;53228;51.380;0.098;2023-11-22T07:18:03;15.05;;;2.30;;
66421;SDS011;53228;51.380;0.098;2023-11-22T07:20:32;6.30;;;1.40;;
66421;SDS011;53228;51.380;0.098;2023-11-22T07:23:00;4.25;;;1.70;;
66421;SDS011;53228;51.380;0.098;2023-11-22T07:25:34;4.65;;;1.58;;
66421;SDS011;53228;51.380;0.098;2023-11-22T07:28:02;7.00;;;1.35;;
66421;SDS011;53228;51.380;0.098;2023-11-22T07:30:29;1.85;;;1.30;;
66421;SDS011;53228;51.380;0.098;2023-11-22T07:33:00;3.25;;;1.33;;
66421;SDS011;53228;51.380;0.098;2023-11-22T07:35:28;3.92;;;1.52;;
66421;SDS011;53228;51.380;0.098;2023-11-22T07:37:55;5.63;;;1.58;;
66421;SDS011;53228;51.380;0.098;2023-11-22T07:40:24;6.20;;;1.50;;
66421;SDS011;53228;51.380;0.098;2023-11-22T07:42:52;6.78;;;1.70;;
66421;SDS011;53228;51.380;0.098;2023-11-22T07:45:21;2.55;;;1.10;;
66421;SDS011;53228;51.380;0.098;2023-11-22T07:47:49;3.55;;;1.30;;
66421;SDS011;53228;51.380;0.098;2023-11-22T07:50:20;6.18;;;1.40;;
66421;SDS011;53228;51.380;0.098;2023-11-22T07:52:49;3.85;;;1.58;;
66421;SDS011;53228;51.380;0.098;2023-11-22T07:55:17;6.30;;;1.63;;
66421;SDS011;53228;51.380;0.098;2023-11-22T07:57:49;3.65;;;1.52;;
66421;SDS011;53228;51.380;0.098;2023-11-22T08:00:17;3.90;;;1.50;;
66421;SDS011;53228;51.380;0.098;2023-11-22T08:02:49;4.35;;;1.73;;
66421;SDS011;53228;51.380;0.098;2023-11-22T08:05:20;6.97;;;1.50;;
66421;SDS011;53228;51.380;0.098;2023-11-22T08:07:50;4.25;;;1.35;;
66421;SDS011;53228;51.380;0.098;2023-11-22T08:10:19;3.53;;;1.30;;
66421;SDS011;53228;51.380;0.098;2023-11-22T08:12:47;3.47;;;1.25;;
66421;SDS011;53228;51.380;0.098;2023-11-22T08:15:17;2.78;;;1.10;;
66421;SDS011;53228;51.380;0.098;2023-11-22T08:17:47;4.45;;;1.50;;
66421;SDS011;53228;51.380;0.098;2023-11-22T08:20:15;4.38;;;1.50;;
66421;SDS011;53228;51.380;0.098;2023-11-22T08:22:46;2.80;;;1.00;;
66421;SDS011;53228;51.380;0.098;2023-11-22T08:25:16;7.03;;;1.13;;
66421;SDS011;53228;51.380;0.098;2023-11-22T08:27:44;4.00;;;1.30;;
66421;SDS011;53228;51.380;0.098;2023-11-22T08:30:12;6.93;;;1.60;;
66421;SDS011;53228;51.380;0.098;2023-11-22T08:32:43;5.68;;;1.35;;
66421;SDS011;53228;51.380;0.098;2023-11-22T08:35:15;2.03;;;1.13;;
66421;SDS011;53228;51.380;0.098;2023-11-22T08:37:43;5.07;;;1.38;;
66421;SDS011;53228;51.380;0.098;2023-11-22T08:40:11;6.38;;;2.13;;
66421;SDS011;53228;51.380;0.098;2023-11-22T08:42:41;3.00;;;0.98;;
66421;SDS011;53228;51.380;0.098;2023-11-22T08:45:10;2.15;;;0.98;;
66421;SDS011;53228;51.380;0.098;2023-11-22T08:47:39;3.50;;;1.05;;
66421;SDS011;53228;51.380;0.098;2023-11-22T08:50:08;3.72;;;1.20;;
66421;SDS011;53228;51.380;0.098;2023-11-22T08:52:39;7.32;;;1.00;;
66421;SDS011;53228;51.380;0.098;2023-11-22T08:55:09;7.63;;;1.42;;
66421;SDS011;53228;51.380;0.098;2023-11-22T08:57:36;5.00;;;1.35;;
66421;SDS011;53228;51.380;0.098;2023-11-22T09:00:05;4.60;;;0.98;;
66421;SDS011;53228;51.380;0.098;2023-11-22T09:02:36;6.00;;;1.00;;
66421;SDS011;53228;51.380;0.098;2023-11-22T09:05:05;7.70;;;1.02;;
66421;SDS011;53228;51.380;0.098;2023-11-22T09:07:35;5.05;;;1.17;;
66421;SDS011;53228;51.380;0.098;2023-11-22T09:10:05;5.30;;;1.27;;
66421;SDS011;53228;51.380;0.098;2023-11-22T09:12:42;3.97;;;1.20;;
66421;SDS011;53228;51.380;0.098;2023-11-22T09:15:11;5.95;;;1.10;;
66421;SDS011;53228;51.380;0.098;2023-11-22T09:17:42;3.50;;;1.10;;
66421;SDS011;53228;51.380;0.098;2023-11-22T09:20:11;4.90;;;1.55;;
66421;SDS011;53228;51.380;0.098;2023-11-22T09:22:49;1.63;;;1.00;;
66421;SDS011;53228;51.380;0.098;2023-11-22T09:25:24;1.73;;;0.80;;
66421;SDS011;53228;51.380;0.098;2023-11-22T09:27:55;4.63;;;1.42;;
66421;SDS011;53228;51.380;0.098;2023-11-22T09:30:27;3.40;;;0.70;;
66421;SDS011;53228;51.380;0.098;2023-11-22T09:33:12;5.43;;;0.98;;
66421;SDS011;53228;51.380;0.098;2023-11-22T09:35:43;3.55;;;1.00;;
66421;SDS011;53228;51.380;0.098;2023-11-22T09:38:12;1.40;;;0.82;;
66421;SDS011;53228;51.380;0.098;2023-11-22T09:40:41;5.10;;;0.90;;
66421;SDS011;53228;51.380;0.098;2023-11-22T09:43:11;2.20;;;1.02;;
66421;SDS011;53228;51.380;0.098;2023-11-22T09:45:42;7.40;;;1.40;;
66421;SDS011;53228;51.380;0.098;2023-11-22T09:48:15;6.05;;;1.38;;
66421;SDS011;53228;51.380;0.098;2023-11-22T09:53:14;3.55;;;0.90;;
66421;SDS011;53228;51.380;0.098;2023-11-22T09:55:49;4.07;;;1.05;;
66421;SDS011;53228;51.380;0.098;2023-11-22T09:58:17;6.82;;;0.98;;
66421;SDS011;53228;51.380;0.098;2023-11-22T10:00:47;4.32;;;1.27;;
66421;SDS011;53228;51.380;0.098;2023-11-22T10:03:15;9.20;;;1.20;;
66421;SDS011;53228;51.380;0.098;2023-11-22T10:05:45;3.85;;;1.10;;
66421;SDS011;53228;51.380;0.098;2023-11-22T10:08:13;1.92;;;1.00;;
66421;SDS011;53228;51.380;0.098;2023-11-22T10:10:41;7.25;;;1.48;;
66421;SDS011;53228;51.380;0.098;2023-11-22T10:13:12;3.30;;;1.02;;
66421;SDS011;53228;51.380;0.098;2023-11-22T10:15:40;4.55;;;1.15;;
66421;SDS011;53228;51.380;0.098;2023-11-22T10:18:08;3.50;;;1.20;;
66421;SDS011;53228;51.380;0.098;2023-11-22T10:20:40;5.95;;;1.60;;
66421;SDS011;53228;51.380;0.098;2023-11-22T10:23:09;5.07;;;1.25;;
66421;SDS011;53228;51.380;0.098;2023-11-22T10:25:48;2.08;;;1.33;;
66421;SDS011;53228;51.380;0.098;2023-11-22T10:28:19;5.90;;;1.52;;
66421;SDS011;53228;51.380;0.098;2023-11-22T10:30:48;3.97;;;1.35;;
66421;SDS011;53228;51.380;0.098;2023-11-22T10:33:17;6.07;;;1.90;;
66421;SDS011;53228;51.380;0.098;2023-11-22T10:35:47;6.25;;;1.30;;
66421;SDS011;53228;51.380;0.098;2023-11-22T10:38:19;3.78;;;1.48;;
66421;SDS011;53228;51.380;0.098;2023-11-22T10:40:48;11.88;;;1.63;;
66421;SDS011;53228;51.380;0.098;2023-11-22T10:43:18;3.90;;;1.55;;
66421;SDS011;53228;51.380;0.098;2023-11-22T10:45:54;5.22;;;1.80;;
66421;SDS011;53228;51.380;0.098;2023-11-22T10:48:26;4.20;;;1.50;;
66421;SDS011;53228;51.380;0.098;2023-11-22T10:51:15;2.50;;;1.90;;
66421;SDS011;53228;51.380;0.098;2023-11-22T10:53:48;6.53;;;1.42;;
66421;SDS011;53228;51.380;0.098;2023-11-22T10:56:17;3.83;;;1.52;;
66421;SDS011;53228;51.380;0.098;2023-11-22T10:58:49;4.47;;;1.40;;
66421;SDS011;53228;51.380;0.098;2023-11-22T11:01:17;5.68;;;1.60;;
66421;SDS011;53228;51.380;0.098;2023-11-22T11:03:55;3.85;;;1.40;;
66421;SDS011;53228;51.380;0.098;2023-11-22T11:06:31;5.07;;;1.33;;
66421;SDS011;53228;51.380;0.098;2023-11-22T11:09:01;7.68;;;1.73;;
66421;SDS011;53228;51.380;0.098;2023-11-22T11:11:36;6.38;;;1.73;;
66421;SDS011;53228;51.380;0.098;2023-11-22T11:14:06;4.18;;;1.35;;
66421;SDS011;53228;51.380;0.098;2023-11-22T11:16:38;1.83;;;1.10;;
66421;SDS011;53228;51.380;0.098;2023-11-22T11:19:14;6.70;;;1.88;;
66421;SDS011;53228;51.380;0.098;2023-11-22T11:24:15;5.95;;;2.03;;
66421;SDS011;53228;51.380;0.098;2023-11-22T11:26:49;4.82;;;1.58;;
66421;SDS011;53228;51.380;0.098;2023-11-22T11:29:31;4.07;;;2.05;;
66421;SDS011;53228;51.380;0.098;2023-11-22T11:32:02;4.95;;;2.20;;
66421;SDS011;53228;51.380;0.098;2023-11-22T11:34:30;4.65;;;1.98;;
66421;SDS011;53228;51.380;0.098;2023-11-22T11:36:59;6.10;;;2.53;;
66421;SDS011;53228;51.380;0.098;2023-11-22T11:39:27;11.73;;;2.30;;
66421;SDS011;53228;51.380;0.098;2023-11-22T11:42:08;8.98;;;1.88;;
66421;SDS011;53228;51.380;0.098;2023-11-22T11:47:34;3.08;;;1.33;;
66421;SDS011;53228;51.380;0.098;2023-11-22T11:50:02;1.40;;;1.00;;
66421;SDS011;53228;51.380;0.098;2023-11-22T11:52:31;1.52;;;1.17;;
66421;SDS011;53228;51.380;0.098;2023-11-22T11:54:59;1.90;;;1.23;;
66421;SDS011;53228;51.380;0.098;2023-11-22T11:57:30;2.85;;;1.40;;
66421;SDS011;53228;51.380;0.098;2023-11-22T11:59:59;4.22;;;1.10;;
66421;SDS011;53228;51.380;0.098;2023-11-22T12:02:37;2.47;;;1.40;;
66421;SDS011;53228;51.380;0.098;2023-11-22T12:05:05;2.58;;;1.38;;
66421;SDS011;53228;51.380;0.098;2023-11-22T12:07:36;29.40;;;11.07;;
66421;SDS011;53228;51.380;0.098;2023-11-22T12:10:04;4.05;;;2.03;;
66421;SDS011;53228;51.380;0.098;2023-11-22T12:12:35;4.03;;;1.20;;
66421;SDS011;53228;51.380;0.098;2023-11-22T12:15:03;2.25;;;0.90;;
66421;SDS011;53228;51.380;0.098;2023-11-22T12:17:33;2.65;;;1.10;;
66421;SDS011;53228;51.380;0.098;2023-11-22T12:22:59;3.08;;;1.55;;
66421;SDS011;53228;51.380;0.098;2023-11-22T12:25:30;1.25;;;1.08;;
66421;SDS011;53228;51.380;0.098;2023-11-22T12:27:58;3.33;;;1.10;;
66421;SDS011;53228;51.380;0.098;2023-11-22T12:30:32;4.65;;;1.25;;
66421;SDS011;53228;51.380;0.098;2023-11-22T12:33:02;5.07;;;1.60;;
66421;SDS011;53228;51.380;0.098;2023-11-22T12:38:08;4.88;;;1.00;;
66421;SDS011;53228;51.380;0.098;2023-11-22T12:40:48;1.58;;;0.90;;
66421;SDS011;53228;51.380;0.098;2023-11-22T12:43:16;1.48;;;0.90;;
66421;SDS011;53228;51.380;0.098;2023-11-22T12:45:43;4.28;;;1.10;;
66421;SDS011;53228;51.380;0.098;2023-11-22T12:48:22;2.90;;;1.00;;
66421;SDS011;53228;51.380;0.098;2023-11-22T12:50:52;1.48;;;0.90;;
66421;SDS011;53228;51.380;0.098;2023-11-22T12:53:21;3.92;;;1.30;;
66421;SDS011;53228;51.380;0.098;2023-11-22T12:58:55;1.92;;;0.95;;
66421;SDS011;53228;51.380;0.098;2023-11-22T13:01:23;3.17;;;1.20;;
66421;SDS011;53228;51.380;0.098;2023-11-22T13:03:51;2.78;;;0.80;;
66421;SDS011;53228;51.380;0.098;2023-11-22T13:06:19;4.88;;;0.95;;
66421;SDS011;53228;51.380;0.098;2023-11-22T13:08:46;1.00;;;0.80;;
66421;SDS011;53228;51.380;0.098;2023-11-22T13:11:14;1.63;;;0.60;;
66421;SDS011;53228;51.380;0.098;2023-11-22T13:13:42;1.15;;;0.60;;
66421;SDS011;53228;51.380;0.098;2023-11-22T13:16:09;0.70;;;0.70;;
66421;SDS011;53228;51.380;0.098;2023-11-22T13:18:37;3.00;;;0.57;;
66421;SDS011;53228;51.380;0.098;2023-11-22T13:21:05;1.55;;;0.80;;
66421;SDS011;53228;51.380;0.098;2023-11-22T13:23:33;1.27;;;0.63;;
66421;SDS011;53228;51.380;0.098;2023-11-22T13:26:01;14.35;;;5.97;;
66421;SDS011;53228;51.380;0.098;2023-11-22T13:28:29;4.07;;;0.70;;
66421;SDS011;53228;51.380;0.098;2023-11-22T13:30:56;2.05;;;0.70;;
66421;SDS011;53228;51.380;0.098;2023-11-22T13:33:24;2.80;;;0.77;;
66421;SDS011;53228;51.380;0.098;2023-11-22T13:35:52;0.60;;;0.40;;
66421;SDS011;53228;51.380;0.098;2023-11-22T13:38:20;1.48;;;0.50;;
66421;SDS011;53228;51.380;0.098;2023-11-22T13:40:47;0.47;;;0.40;;
66421;SDS011;53228;51.380;0.098;2023-11-22T13:43:15;0.55;;;0.30;;
66421;SDS011;53228;51.380;0.098;2023-11-22T13:45:44;1.63;;;0.55;;
66421;SDS011;53228;51.380;0.098;2023-11-22T13:48:12;0.40;;;0.38;;
66421;SDS011;53228;51.380;0.098;2023-11-22T13:50:40;0.70;;;0.35;;
66421;SDS011;53228;51.380;0.098;2023-11-22T13:53:08;0.70;;;0.40;;
66421;SDS011;53228;51.380;0.098;2023-11-22T13:55:38;0.20;;;0.13;;
66421;SDS011;53228;51.380;0.098;2023-11-22T13:58:06;0.75;;;0.30;;
66421;SDS011;53228;51.380;0.098;2023-11-22T14:00:34;2.15;;;0.60;;
66421;SDS011;53228;51.380;0.098;2023-11-22T14:03:02;4.47;;;1.77;;
66421;SDS011;53228;51.380;0.098;2023-11-22T14:05:36;1.02;;;0.63;;
66421;SDS011;53228;51.380;0.098;2023-11-22T14:08:06;0.38;;;0.38;;
66421;SDS011;53228;51.380;0.098;2023-11-22T14:10:34;1.85;;;0.50;;
66421;SDS011;53228;51.380;0.098;2023-11-22T14:13:01;0.47;;;0.30;;
66421;SDS011;53228;51.380;0.098;2023-11-22T14:15:31;0.55;;;0.30;;
66421;SDS011;53228;51.380;0.098;2023-11-22T14:17:59;0.60;;;0.40;;
66421;SDS011;53228;51.380;0.098;2023-11-22T14:20:27;4.38;;;0.45;;
66421;SDS011;53228;51.380;0.098;2023-11-22T14:22:56;0.32;;;0.32;;
66421;SDS011;53228;51.380;0.098;2023-11-22T14:25:24;2.03;;;0.40;;
66421;SDS011;53228;51.380;0.098;2023-11-22T14:27:53;0.60;;;0.40;;
66421;SDS011;53228;51.380;0.098;2023-11-22T14:30:23;2.10;;;0.30;;
66421;SDS011;53228;51.380;0.098;2023-11-22T14:32:52;1.05;;;0.60;;
66421;SDS011;53228;51.380;0.098;2023-11-22T14:35:20;0.88;;;0.40;;
66421;SDS011;53228;51.380;0.098;2023-11-22T14:37:47;3.30;;;0.80;;
66421;SDS011;53228;51.380;0.098;2023-11-22T14:40:15;2.83;;;1.48;;
66421;SDS011;53228;51.380;0.098;2023-11-22T14:42:47;1.55;;;0.70;;
66421;SDS011;53228;51.380;0.098;2023-11-22T14:45:19;1.38;;;0.63;;
66421;SDS011;53228;51.380;0.098;2023-11-22T14:47:47;0.65;;;0.55;;
66421;SDS011;53228;51.380;0.098;2023-11-22T14:50:17;1.73;;;0.75;;
66421;SDS011;53228;51.380;0.098;2023-11-22T14:52:47;1.85;;;0.82;;
66421;SDS011;53228;51.380;0.098;2023-11-22T14:55:17;2.28;;;0.40;;
66421;SDS011;53228;51.380;0.098;2023-11-22T14:57:50;1.17;;;0.45;;
66421;SDS011;53228;51.380;0.098;2023-11-22T15:00:17;5.10;;;1.00;;
66421;SDS011;53228;51.380;0.098;2023-11-22T15:02:45;1.40;;;0.40;;
66421;SDS011;53228;51.380;0.098;2023-11-22T15:05:15;3.33;;;1.05;;
66421;SDS011;53228;51.380;0.098;2023-11-22T15:07:42;3.00;;;0.70;;
66421;SDS011;53228;51.380;0.098;2023-11-22T15:10:10;0.98;;;0.70;;
66421;SDS011;53228;51.380;0.098;2023-11-22T15:12:38;1.40;;;1.10;;
66421;SDS011;53228;51.380;0.098;2023-11-22T15:15:08;2.17;;;0.60;;
66421;SDS011;53228;51.380;0.098;2023-11-22T15:17:36;1.48;;;0.50;;
66421;SDS011;53228;51.380;0.098;2023-11-22T15:20:05;0.30;;;0.22;;